Flugplatz Stuttgart

Bericht für EDDS

vom 15.07. um 18:50 UTC

variable Windrichtung mit 2 kt

Sichtweite 10 km oder mehr

gering bewölkt in 4500 ft

aufgelockert bewölkt in 10000 ft

aufgebrochene Bewölkung in 20000 ft

Temperatur 21.0°C

Taupunkt 11.0°C

Luftfeuchtigkeit 53%

Luftdruck 1015 hPa

keine wesentliche Wetteränderung innerhalb den nächsten 2 Stunden zu erwarten

EDDS 151850Z VRB02KT 9999 FEW045CB SCT100 BKN200 21/11 Q1015 NOSIG

Prognose für EDDS

vom 15.07. um 17:00 UTC

Zwischen 18:00 UTC und 18:00 UTC

variable Windrichtung mit 3 kt

Sichtweite 10 km oder mehr

keine signifikanten Wettererscheinungen

keine Wolken


Zwischen 21:00 UTC und 07:00 UTC zeitweise

Regenschauer

aufgelockert bewölkt in 4500 ft


Zwischen 22:00 UTC und 07:00 UTC zeitweise mit einer Wahrscheinlichkeit von 30%

Code: TSRA

aufgebrochene Bewölkung in 4000 ft


Am 16.07. zwischen 12:00 UTC und 18:00 UTC zeitweise mit einer Wahrscheinlichkeit von 30%

Code: TSRA

aufgelockert bewölkt in 4500 ft

TAF EDDS 151700Z 1518/1618 VRB03KT CAVOK TEMPO 1521/1607 SHRA SCT045CB PROB30 TEMPO 1522/1607 TSRA BKN040CB PROB30 TEMPO 1612/1618 TSRA SCT045CB
Impressum